Terminal Aerodrome Forecast
Issued by NWS Grand Forks, ND

Home | Current Version | Previous Version | Text Only | Print | Product List | Glossary Off
Versions: 1 2 3 4 5 6 7 8 9 10 11 12 13 14 15 16

972
FTUS43 KFGF 222335
TAFGFK
TAF
KGFK 222335Z 2300/2324 16007KT P6SM SCT050
     FM230300 14005KT P6SM SCT250
     FM230800 VRB04KT P6SM FEW250
     FM231300 13005KT P6SM SCT250
     FM231600 13009KT P6SM SCT060=

USA.gov is the U.S. government's official web portal to all federal, state and local government web resources and services.